createdAt,value
2024-04-16T00:24:23.928Z,100391.06
2024-04-16T00:26:51.009Z,100388.28
2024-04-16T00:29:19.016Z,100387.69
2024-04-16T00:31:46.117Z,100388.78
2024-04-16T00:34:13.224Z,100389.72
2024-04-16T00:36:40.343Z,100388.78
2024-04-16T00:39:09.394Z,100383.91
2024-04-16T00:41:36.426Z,100385.75
2024-04-16T00:44:03.468Z,100388.06
2024-04-16T00:46:30.636Z,100387.28
2024-04-16T00:48:58.387Z,100386.19
2024-04-16T00:51:25.661Z,100386.34
2024-04-16T00:53:52.816Z,100381.19
2024-04-16T00:56:20.044Z,100374.22
2024-04-16T00:58:47.922Z,100372.44
2024-04-16T01:01:15.420Z,100368.41
2024-04-16T01:03:44.670Z,100367.97
2024-04-16T01:06:13.027Z,100365.84
2024-04-16T01:08:40.100Z,100357.59
2024-04-16T01:11:07.136Z,100363.00
2024-04-16T01:13:34.251Z,100359.94
2024-04-16T01:16:01.351Z,100367.72
2024-04-16T01:18:28.473Z,100346.50
2024-04-16T01:20:55.812Z,100351.19
2024-04-16T01:23:22.817Z,100343.22
2024-04-16T01:25:49.871Z,100327.59
2024-04-16T01:28:16.913Z,100329.50
2024-04-16T01:30:43.971Z,100321.25
2024-04-16T01:33:11.042Z,100317.84
2024-04-16T01:35:38.033Z,100320.13
2024-04-16T01:38:05.310Z,100323.06
2024-04-16T01:40:32.393Z,100320.13
2024-04-16T01:42:59.445Z,100317.38
2024-04-16T01:45:26.578Z,100320.41
2024-04-16T01:47:53.658Z,100314.56
2024-04-16T01:50:20.698Z,100308.94
2024-04-16T01:52:47.739Z,100300.34
2024-04-16T01:55:14.986Z,100297.94
2024-04-16T01:57:42.067Z,100287.47
2024-04-16T02:00:09.825Z,100284.34
2024-04-16T02:02:37.805Z,100293.56
2024-04-16T02:05:05.397Z,100282.94
2024-04-16T02:07:32.747Z,100289.38
2024-04-16T02:10:00.352Z,100294.91
2024-04-16T02:12:27.477Z,100298.94
2024-04-16T02:14:54.486Z,100295.13
2024-04-16T02:17:23.150Z,100287.72
2024-04-16T02:19:50.197Z,100279.78
2024-04-16T02:22:17.216Z,100284.69
2024-04-16T02:24:44.320Z,100276.22
2024-04-16T02:27:11.362Z,100272.31
2024-04-16T02:29:38.456Z,100260.03
2024-04-16T02:32:05.849Z,100269.66
2024-04-16T02:34:32.892Z,100265.81
2024-04-16T02:36:59.991Z,100262.53
2024-04-16T02:39:27.079Z,100272.75
2024-04-16T02:41:54.925Z,100262.28
2024-04-16T02:44:21.984Z,100251.72
2024-04-16T02:46:48.998Z,100258.66
2024-04-16T02:49:16.050Z,100267.88
2024-04-16T02:51:43.101Z,100260.59
2024-04-16T02:54:10.254Z,100258.38
2024-04-16T02:56:37.385Z,100255.91
2024-04-16T02:59:04.418Z,100260.09
2024-04-16T03:01:33.342Z,100253.25
2024-04-16T03:04:00.494Z,100252.97
2024-04-16T03:06:27.616Z,100254.22
2024-04-16T03:08:54.741Z,100259.72
2024-04-16T03:11:21.755Z,100249.09
2024-04-16T03:13:48.866Z,100258.31
2024-04-16T03:16:16.001Z,100262.91
2024-04-16T03:18:45.335Z,100265.81
2024-04-16T03:21:12.393Z,100258.44
2024-04-16T03:23:39.492Z,100256.16
2024-04-16T03:26:06.528Z,100253.47
2024-04-16T03:28:34.430Z,100258.06
2024-04-16T03:31:01.684Z,100249.53
2024-04-16T03:33:28.797Z,100254.03
2024-04-16T03:35:56.355Z,100244.72
2024-04-16T03:38:23.458Z,100259.59
2024-04-16T03:41:03.866Z,100244.44
2024-04-16T03:43:33.274Z,100247.50
2024-04-16T03:46:06.454Z,100255.88
2024-04-16T03:48:33.494Z,100244.56
2024-04-16T03:51:00.686Z,100243.97
2024-04-16T03:53:27.936Z,100238.66
2024-04-16T03:56:00.178Z,100235.34
2024-04-16T03:58:31.184Z,100227.78
2024-04-16T04:01:09.564Z,100205.28
2024-04-16T04:03:36.962Z,100235.34
2024-04-16T04:06:04.156Z,100226.69
2024-04-16T04:08:31.206Z,100222.47
2024-04-16T04:10:58.316Z,100231.25
2024-04-16T04:13:25.502Z,100219.25
2024-04-16T04:15:52.611Z,100225.81
2024-04-16T04:18:19.811Z,100219.13
2024-04-16T04:20:48.087Z,100226.22
2024-04-16T04:23:15.876Z,100227.38
2024-04-16T04:25:42.993Z,100197.13
2024-04-16T04:28:10.036Z,100220.22
2024-04-16T04:30:38.382Z,100215.22
2024-04-16T04:33:05.605Z,100218.56
2024-04-16T04:35:32.850Z,100220.97
2024-04-16T04:38:00.045Z,100211.16
2024-04-16T04:40:27.933Z,100219.69
2024-04-16T04:42:56.644Z,100216.59
2024-04-16T04:45:23.791Z,100221.59
2024-04-16T04:47:50.949Z,100211.88
2024-04-16T04:50:18.040Z,100213.56
2024-04-16T04:52:45.198Z,100211.25
2024-04-16T04:55:12.337Z,100219.34
2024-04-16T04:57:40.399Z,100221.34
2024-04-16T05:00:08.179Z,100224.84
2024-04-16T05:02:35.304Z,100222.88
2024-04-16T05:05:02.376Z,100230.13
2024-04-16T05:07:29.485Z,100226.13
2024-04-16T05:09:56.497Z,100228.88
2024-04-16T05:12:23.833Z,100233.03
2024-04-16T05:14:50.860Z,100228.28
2024-04-16T05:17:17.852Z,100235.84
2024-04-16T05:19:44.903Z,100224.78
2024-04-16T05:22:12.112Z,100236.53
2024-04-16T05:24:39.168Z,100233.28
2024-04-16T05:27:06.168Z,100230.94
2024-04-16T05:29:33.547Z,100215.63
2024-04-16T05:32:00.651Z,100226.72
2024-04-16T05:34:27.719Z,100219.59
2024-04-16T05:36:54.934Z,100226.72
2024-04-16T05:39:22.174Z,100219.75
2024-04-16T05:41:49.262Z,100210.94
2024-04-16T05:44:16.405Z,100218.19
2024-04-16T05:46:43.558Z,100209.47
2024-04-16T05:49:10.691Z,100230.25
2024-04-16T05:51:37.734Z,100217.56
2024-04-16T05:54:08.126Z,100229.13
2024-04-16T05:56:35.748Z,100227.00
2024-04-16T05:59:02.946Z,100240.38
2024-04-16T06:01:30.258Z,100230.75
2024-04-16T06:03:57.323Z,100234.44
2024-04-16T06:06:24.466Z,100235.25
2024-04-16T06:08:51.549Z,100229.16
2024-04-16T06:11:18.669Z,100234.13
2024-04-16T06:13:47.974Z,100239.41
2024-04-16T06:16:15.431Z,100246.94
2024-04-16T06:18:43.696Z,100237.19
2024-04-16T06:21:13.637Z,100237.22
2024-04-16T06:23:40.790Z,100234.75
2024-04-16T06:26:09.698Z,100249.09
2024-04-16T06:28:37.653Z,100239.50
2024-04-16T06:31:05.107Z,100237.47
2024-04-16T06:33:34.746Z,100245.97
2024-04-16T06:36:02.172Z,100247.09
2024-04-16T06:38:29.234Z,100246.94
2024-04-16T06:40:56.363Z,100244.34
2024-04-16T06:43:23.491Z,100251.56
2024-04-16T06:45:50.627Z,100251.66
2024-04-16T06:48:17.951Z,100250.00
2024-04-16T06:50:48.095Z,100251.91
2024-04-16T06:53:15.291Z,100258.22
2024-04-16T06:55:42.723Z,100254.38
2024-04-16T06:58:10.023Z,100249.16
2024-04-16T07:00:37.052Z,100255.75
2024-04-16T07:03:04.528Z,100246.88
2024-04-16T07:05:31.613Z,100257.31
2024-04-16T07:07:58.707Z,100249.69
2024-04-16T07:10:25.781Z,100246.56
2024-04-16T07:12:52.826Z,100241.53
2024-04-16T07:15:19.838Z,100235.00
2024-04-16T07:17:47.097Z,100238.31
2024-04-16T07:20:14.250Z,100245.16
2024-04-16T07:22:41.317Z,100231.03
2024-04-16T07:25:08.565Z,100227.34
2024-04-16T07:27:35.782Z,100223.16
2024-04-16T07:30:02.890Z,100227.88
2024-04-16T07:32:30.230Z,100218.25
2024-04-16T07:34:58.365Z,100219.88
2024-04-16T07:37:26.281Z,100212.91
2024-04-16T07:39:53.308Z,100247.28
2024-04-16T07:42:20.362Z,100252.53
2024-04-16T07:44:47.546Z,100247.63
2024-04-16T07:47:15.091Z,100248.59
2024-04-16T07:49:42.237Z,100245.81
2024-04-16T07:52:09.339Z,100249.75
2024-04-16T07:54:36.410Z,100252.53
2024-04-16T07:57:03.630Z,100253.97
2024-04-16T07:59:30.744Z,100261.50
2024-04-16T08:01:57.830Z,100259.06
2024-04-16T08:04:25.017Z,100268.38
2024-04-16T08:06:52.218Z,100255.00
2024-04-16T08:09:20.005Z,100265.31
2024-04-16T08:11:47.118Z,100260.50
2024-04-16T08:14:18.125Z,100254.91
2024-04-16T08:16:45.275Z,100256.94
2024-04-16T08:19:14.220Z,100255.81
2024-04-16T08:21:41.416Z,100260.69
2024-04-16T08:24:08.527Z,100233.75
2024-04-16T08:26:35.603Z,100249.81
2024-04-16T08:29:02.632Z,100249.31
2024-04-16T08:31:30.033Z,100248.63
2024-04-16T08:33:57.281Z,100243.53
2024-04-16T08:36:24.577Z,100258.81
2024-04-16T08:38:51.787Z,100258.84
2024-04-16T08:41:18.862Z,100257.47
2024-04-16T08:43:47.132Z,100268.19
2024-04-16T08:46:15.707Z,100272.22
2024-04-16T08:48:44.950Z,100253.78
2024-04-16T08:51:15.075Z,100263.47
2024-04-16T08:53:43.574Z,100262.72
2024-04-16T08:56:11.130Z,100264.03
2024-04-16T08:58:38.291Z,100255.38
2024-04-16T09:01:07.751Z,100251.59
2024-04-16T09:03:35.346Z,100268.38
2024-04-16T09:06:05.405Z,100273.16
2024-04-16T09:08:33.018Z,100264.84
2024-04-16T09:11:00.322Z,100268.78
2024-04-16T09:13:27.432Z,100266.22
2024-04-16T09:15:54.589Z,100268.56
2024-04-16T09:18:25.215Z,100272.31
2024-04-16T09:20:52.318Z,100282.94
2024-04-16T09:23:19.377Z,100278.22
2024-04-16T09:25:46.626Z,100270.03
2024-04-16T09:28:17.561Z,100262.47
2024-04-16T09:30:57.137Z,100279.31
2024-04-16T09:33:33.529Z,100256.69
2024-04-16T09:36:11.911Z,100294.63
2024-04-16T09:38:46.671Z,100272.41
2024-04-16T09:41:15.306Z,100268.38
2024-04-16T09:43:43.993Z,100289.31
2024-04-16T09:46:13.070Z,100297.91
2024-04-16T09:48:43.571Z,100294.25
2024-04-16T09:51:10.848Z,100284.81
2024-04-16T09:53:41.100Z,100293.19
2024-04-16T09:56:10.406Z,100297.44
2024-04-16T09:58:38.581Z,100309.22
2024-04-16T10:01:05.882Z,100271.84
2024-04-16T10:03:33.597Z,100306.97
2024-04-16T10:06:00.927Z,100305.56
2024-04-16T10:08:28.437Z,100307.19
2024-04-16T10:11:02.520Z,100314.81
2024-04-16T10:13:34.652Z,100319.50
2024-04-16T10:16:02.151Z,100317.88
2024-04-16T10:18:30.099Z,100285.25
2024-04-16T10:21:01.568Z,100311.22
2024-04-16T10:23:31.639Z,100317.63
2024-04-16T10:25:59.754Z,100310.00
2024-04-16T10:28:32.947Z,100315.09
2024-04-16T10:31:12.918Z,100314.59
2024-04-16T10:33:43.969Z,100312.53
2024-04-16T10:36:16.527Z,100298.09
2024-04-16T10:38:43.848Z,100304.84
2024-04-16T10:41:11.029Z,100321.41
2024-04-16T10:43:39.706Z,100328.13
2024-04-16T10:46:07.750Z,100334.28
2024-04-16T10:48:34.810Z,100326.50
2024-04-16T10:51:01.963Z,100326.50
2024-04-16T10:53:28.981Z,100326.22
2024-04-16T10:55:56.479Z,100341.69
2024-04-16T10:58:23.653Z,100331.72
2024-04-16T11:00:55.095Z,100323.56
2024-04-16T11:03:23.794Z,100322.06
2024-04-16T11:05:50.996Z,100328.38
2024-04-16T11:08:18.200Z,100323.13
2024-04-16T11:10:51.588Z,100325.19
2024-04-16T11:13:23.326Z,100276.38
2024-04-16T11:15:52.706Z,100309.38
2024-04-16T11:18:20.956Z,100301.34
2024-04-16T11:20:48.802Z,100305.66
2024-04-16T11:23:16.042Z,100303.66
2024-04-16T11:25:48.226Z,100295.88
2024-04-16T11:28:15.990Z,100299.13
2024-04-16T11:30:55.311Z,100289.78
2024-04-16T11:33:30.147Z,100298.84
2024-04-16T11:36:10.700Z,100266.81
2024-04-16T11:38:43.886Z,100291.31
2024-04-16T11:41:13.533Z,100300.09
2024-04-16T11:43:43.851Z,100298.28
2024-04-16T11:46:13.742Z,100304.50
2024-04-16T11:48:43.736Z,100289.47
2024-04-16T11:51:12.837Z,100289.47
2024-04-16T11:53:40.519Z,100290.78
2024-04-16T11:56:11.940Z,100291.16
2024-04-16T11:58:40.943Z,100286.72
2024-04-16T12:01:08.343Z,100278.84
2024-04-16T12:03:35.448Z,100280.88
2024-04-16T12:06:02.636Z,100281.00
2024-04-16T12:08:29.724Z,100271.53
2024-04-16T12:10:56.938Z,100272.28
2024-04-16T12:13:24.064Z,100277.50
2024-04-16T12:15:51.574Z,100260.22
2024-04-16T12:18:18.742Z,100272.09
2024-04-16T12:20:46.383Z,100260.47
2024-04-16T12:23:13.460Z,100256.09
2024-04-16T12:25:40.557Z,100256.31
2024-04-16T12:28:07.805Z,100261.00
2024-04-16T12:30:34.903Z,100259.78
2024-04-16T12:33:11.005Z,100265.63
2024-04-16T12:35:43.163Z,100268.22
2024-04-16T12:38:10.151Z,100268.81
2024-04-16T12:40:37.774Z,100265.41
2024-04-16T12:43:05.209Z,100259.44
2024-04-16T12:45:32.196Z,100258.03
2024-04-16T12:47:59.420Z,100256.91
2024-04-16T12:50:26.532Z,100255.16
2024-04-16T12:52:53.675Z,100255.97
2024-04-16T12:55:20.908Z,100254.47
2024-04-16T12:57:48.003Z,100256.34
2024-04-16T13:00:15.056Z,100242.97
2024-04-16T13:02:42.115Z,100241.56
2024-04-16T13:05:09.214Z,100234.75
2024-04-16T13:07:36.426Z,100243.41
2024-04-16T13:10:03.535Z,100226.66
2024-04-16T13:12:30.542Z,100233.59
2024-04-16T13:14:57.570Z,100244.25
2024-04-16T13:17:24.692Z,100236.84
2024-04-16T13:19:53.867Z,100235.72
2024-04-16T13:22:21.475Z,100227.28
2024-04-16T13:24:48.686Z,100230.44
2024-04-16T13:27:15.832Z,100227.84
2024-04-16T13:29:43.168Z,100231.41
2024-04-16T13:32:10.765Z,100224.44
2024-04-16T13:34:38.171Z,100230.78
2024-04-16T13:37:05.458Z,100225.59
2024-04-16T13:39:32.604Z,100233.97
2024-04-16T13:41:59.710Z,100220.47
2024-04-16T13:44:26.887Z,100219.09
2024-04-16T13:46:54.032Z,100218.38
2024-04-16T13:49:21.204Z,100219.19
2024-04-16T13:51:48.375Z,100220.38
2024-04-16T13:54:15.569Z,100211.06
2024-04-16T13:56:42.976Z,100214.22
2024-04-16T13:59:10.282Z,100204.78
2024-04-16T14:01:37.440Z,100204.94
2024-04-16T14:04:04.550Z,100193.94
2024-04-16T14:06:31.610Z,100196.16
2024-04-16T14:09:01.429Z,100190.44
2024-04-16T14:11:28.579Z,100190.44
2024-04-16T14:13:55.702Z,100189.59
2024-04-16T14:16:23.401Z,100187.47
2024-04-16T14:18:52.495Z,100172.47
2024-04-16T14:21:20.127Z,100167.28
2024-04-16T14:23:47.693Z,100169.25
2024-04-16T14:26:17.319Z,100171.06
2024-04-16T14:28:45.277Z,100165.63
2024-04-16T14:31:14.366Z,100169.75
2024-04-16T14:33:42.415Z,100161.88
2024-04-16T14:36:09.569Z,100164.00
2024-04-16T14:38:36.651Z,100178.00
2024-04-16T14:41:03.727Z,100164.28
2024-04-16T14:43:30.817Z,100169.72
2024-04-16T14:45:57.923Z,100158.03
2024-04-16T14:48:25.092Z,100166.88
2024-04-16T14:50:52.213Z,100167.75
2024-04-16T14:53:19.937Z,100168.00
2024-04-16T14:55:50.900Z,100170.53
2024-04-16T14:58:18.000Z,100170.38
2024-04-16T15:00:45.610Z,100170.41
2024-04-16T15:03:13.091Z,100161.78
2024-04-16T15:05:41.457Z,100173.59
2024-04-16T15:08:11.256Z,100158.88
2024-04-16T15:10:38.168Z,100167.63
2024-04-16T15:13:08.313Z,100170.00
2024-04-16T15:15:35.799Z,100152.75
2024-04-16T15:18:03.367Z,100160.69
2024-04-16T15:20:30.671Z,100155.38
2024-04-16T15:23:00.730Z,100153.34
2024-04-16T15:25:27.897Z,100148.53
2024-04-16T15:27:55.016Z,100156.59
2024-04-16T15:30:22.061Z,100139.84
2024-04-16T15:32:49.255Z,100140.28
2024-04-16T15:35:16.655Z,100140.63
2024-04-16T15:37:45.086Z,100143.19
2024-04-16T15:40:17.491Z,100130.16
2024-04-16T15:42:51.405Z,100137.28
2024-04-16T15:45:18.390Z,100137.78
2024-04-16T15:47:45.507Z,100136.06
2024-04-16T15:50:12.625Z,100131.09
2024-04-16T15:52:39.715Z,100125.44
2024-04-16T15:55:06.868Z,100128.94
2024-04-16T15:57:34.302Z,100129.47
2024-04-16T16:00:01.361Z,100144.03
2024-04-16T16:02:28.557Z,100132.47
2024-04-16T16:04:55.829Z,100130.75
2024-04-16T16:07:23.106Z,100142.09
2024-04-16T16:09:52.522Z,100135.41
2024-04-16T16:12:20.216Z,100131.72
2024-04-16T16:14:47.270Z,100136.28
2024-04-16T16:17:14.369Z,100120.34
2024-04-16T16:19:41.530Z,100139.28
2024-04-16T16:22:11.343Z,100148.66
2024-04-16T16:24:38.231Z,100143.88
2024-04-16T16:27:05.328Z,100140.88
2024-04-16T16:29:32.405Z,100137.53
2024-04-16T16:31:59.520Z,100125.72
2024-04-16T16:34:26.588Z,100134.00
2024-04-16T16:36:53.665Z,100126.97
2024-04-16T16:39:20.718Z,100135.88
2024-04-16T16:41:47.793Z,100128.06
2024-04-16T16:44:15.626Z,100128.84
2024-04-16T16:46:42.946Z,100139.78
2024-04-16T16:49:10.090Z,100141.69
2024-04-16T16:51:37.254Z,100140.53
2024-04-16T16:54:04.460Z,100136.13
2024-04-16T16:56:31.588Z,100140.63
2024-04-16T16:59:01.393Z,100143.13
2024-04-16T17:01:28.404Z,100140.31
2024-04-16T17:03:55.525Z,100144.59
2024-04-16T17:06:22.646Z,100144.91
2024-04-16T17:08:50.158Z,100137.00
2024-04-16T17:11:17.750Z,100130.66
2024-04-16T17:13:44.985Z,100138.00
2024-04-16T17:16:12.193Z,100138.00
2024-04-16T17:18:42.158Z,100135.31
2024-04-16T17:21:09.840Z,100135.63
2024-04-16T17:23:36.877Z,100117.28
2024-04-16T17:26:04.724Z,100140.13
2024-04-16T17:28:34.908Z,100141.34
2024-04-16T17:31:04.419Z,100135.50
2024-04-16T17:33:31.779Z,100126.25
2024-04-16T17:35:58.900Z,100134.66
2024-04-16T17:38:26.527Z,100113.91
2024-04-16T17:40:54.020Z,100131.13
2024-04-16T17:43:21.218Z,100119.28
2024-04-16T17:45:48.692Z,100122.72
2024-04-16T17:48:15.959Z,100131.75
2024-04-16T17:50:43.335Z,100119.47
2024-04-16T17:53:10.520Z,100135.09
2024-04-16T17:55:37.615Z,100130.69
2024-04-16T17:58:07.546Z,100135.09
2024-04-16T18:00:37.122Z,100124.03
2024-04-16T18:03:07.178Z,100113.88
2024-04-16T18:05:35.759Z,100132.38
2024-04-16T18:08:05.193Z,100127.75
2024-04-16T18:10:32.408Z,100130.41
2024-04-16T18:12:59.479Z,100137.69
2024-04-16T18:15:26.674Z,100145.50
2024-04-16T18:17:53.884Z,100132.91
2024-04-16T18:20:21.014Z,100124.66
2024-04-16T18:22:48.412Z,100126.34
2024-04-16T18:25:15.739Z,100125.81
2024-04-16T18:27:43.440Z,100127.75
2024-04-16T18:30:10.872Z,100118.91
2024-04-16T18:32:38.133Z,100126.94
2024-04-16T18:35:05.968Z,100125.25
2024-04-16T18:37:33.284Z,100102.59
2024-04-16T18:40:00.445Z,100126.72
2024-04-16T18:42:27.690Z,100118.03
2024-04-16T18:44:54.734Z,100107.47
2024-04-16T18:47:23.396Z,100117.69
2024-04-16T18:49:51.280Z,100131.50
2024-04-16T18:52:18.488Z,100102.47
2024-04-16T18:54:45.590Z,100131.06
2024-04-16T18:57:12.668Z,100114.63
2024-04-16T18:59:39.940Z,100111.97
2024-04-16T19:02:07.329Z,100127.84
2024-04-16T19:04:35.615Z,100128.00
2024-04-16T19:07:02.890Z,100123.97
2024-04-16T19:09:29.996Z,100133.31
2024-04-16T19:11:57.121Z,100126.56
2024-04-16T19:14:25.520Z,100139.38
2024-04-16T19:16:52.592Z,100145.47
2024-04-16T19:19:20.830Z,100144.41
2024-04-16T19:21:48.444Z,100147.81
2024-04-16T19:24:15.511Z,100170.88
2024-04-16T19:26:42.539Z,100174.25
2024-04-16T19:29:10.002Z,100176.13
2024-04-16T19:31:37.258Z,100173.63
2024-04-16T19:34:05.176Z,100169.31
2024-04-16T19:36:32.824Z,100175.88
2024-04-16T19:38:59.919Z,100166.78
2024-04-16T19:41:27.344Z,100172.81
2024-04-16T19:43:54.920Z,100163.03
2024-04-16T19:46:22.062Z,100183.41
2024-04-16T19:48:49.286Z,100186.47
2024-04-16T19:51:16.458Z,100188.81
2024-04-16T19:53:43.537Z,100180.88
2024-04-16T19:56:14.144Z,100166.25
2024-04-16T19:58:41.220Z,100178.38
2024-04-16T20:01:11.190Z,100177.09
2024-04-16T20:03:38.518Z,100163.19
2024-04-16T20:06:10.544Z,100184.63
2024-04-16T20:08:38.171Z,100186.16
2024-04-16T20:11:05.953Z,100183.22
2024-04-16T20:13:33.963Z,100182.66
2024-04-16T20:16:04.514Z,100185.88
2024-04-16T20:18:31.776Z,100188.38
2024-04-16T20:21:02.288Z,100192.00
2024-04-16T20:23:29.660Z,100195.06
2024-04-16T20:26:09.596Z,100198.38
2024-04-16T20:28:38.266Z,100191.19
2024-04-16T20:31:05.887Z,100200.25
2024-04-16T20:33:34.242Z,100198.44
2024-04-16T20:36:04.113Z,100202.22
2024-04-16T20:38:31.446Z,100197.56
2024-04-16T20:40:59.495Z,100197.84
2024-04-16T20:43:26.717Z,100191.47
2024-04-16T20:45:53.925Z,100197.72
2024-04-16T20:48:22.042Z,100193.69
2024-04-16T20:50:55.809Z,100197.16
2024-04-16T20:53:30.030Z,100197.03
2024-04-16T20:55:58.938Z,100200.63
2024-04-16T20:58:26.148Z,100203.69
2024-04-16T21:00:54.806Z,100208.47
2024-04-16T21:03:22.435Z,100205.25
2024-04-16T21:05:52.501Z,100195.94
2024-04-16T21:08:19.777Z,100200.38
2024-04-16T21:10:47.344Z,100197.84
2024-04-16T21:13:14.773Z,100204.84
2024-04-16T21:15:44.688Z,100207.91
2024-04-16T21:18:11.691Z,100200.22
2024-04-16T21:20:38.796Z,100208.72
2024-04-16T21:23:05.846Z,100202.06
2024-04-16T21:25:32.902Z,100199.28
2024-04-16T21:27:59.963Z,100209.47
2024-04-16T21:30:26.996Z,100194.00
2024-04-16T21:32:54.090Z,100196.38
2024-04-16T21:35:21.105Z,100206.66
2024-04-16T21:37:48.323Z,100207.38
2024-04-16T21:40:15.460Z,100201.34
2024-04-16T21:42:42.886Z,100203.44
2024-04-16T21:45:09.942Z,100207.66
2024-04-16T21:47:37.157Z,100204.31
2024-04-16T21:50:04.461Z,100208.47
2024-04-16T21:52:31.479Z,100214.59
2024-04-16T21:54:58.547Z,100201.78
2024-04-16T21:57:26.836Z,100212.38
2024-04-16T21:59:54.029Z,100219.34
2024-04-16T22:02:21.851Z,100209.16
2024-04-16T22:04:49.143Z,100209.44
2024-04-16T22:07:16.251Z,100205.66
2024-04-16T22:09:43.297Z,100201.78
2024-04-16T22:12:10.358Z,100210.41
2024-04-16T22:14:37.376Z,100204.84
2024-04-16T22:17:04.453Z,100200.91
2024-04-16T22:19:31.463Z,100213.75
2024-04-16T22:21:58.444Z,100199.81
2024-04-16T22:24:25.566Z,100216.00
2024-04-16T22:26:52.702Z,100207.50
2024-04-16T22:29:20.313Z,100201.53
2024-04-16T22:31:47.764Z,100205.97
2024-04-16T22:34:14.833Z,100203.44
2024-04-16T22:36:41.818Z,100197.72
2024-04-16T22:39:08.805Z,100200.25
2024-04-16T22:41:36.007Z,100199.28
2024-04-16T22:44:03.118Z,100198.44
2024-04-16T22:46:30.824Z,100197.88
2024-04-16T22:48:57.960Z,100203.03
2024-04-16T22:51:25.047Z,100193.97
2024-04-16T22:53:52.580Z,100196.22
2024-04-16T22:56:22.362Z,100194.56
2024-04-16T22:58:50.947Z,100189.50
2024-04-16T23:01:17.972Z,100187.28
2024-04-16T23:03:45.077Z,100183.97
2024-04-16T23:06:12.116Z,100193.41
2024-04-16T23:08:39.130Z,100190.91
2024-04-16T23:11:06.254Z,100191.31
2024-04-16T23:13:33.312Z,100201.91
2024-04-16T23:16:00.404Z,100195.50
2024-04-16T23:18:27.507Z,100193.69
2024-04-16T23:20:54.665Z,100195.34
2024-04-16T23:23:21.692Z,100204.56
2024-04-16T23:25:48.866Z,100197.16
2024-04-16T23:28:15.905Z,100192.56
2024-04-16T23:30:42.924Z,100194.50
2024-04-16T23:33:10.122Z,100204.53
2024-04-16T23:35:37.193Z,100184.63
2024-04-16T23:38:04.389Z,100192.41
2024-04-16T23:40:31.512Z,100192.56
2024-04-16T23:42:58.654Z,100183.38
2024-04-16T23:45:25.666Z,100176.41
2024-04-16T23:47:52.779Z,100173.06
2024-04-16T23:50:19.785Z,100180.31
2024-04-16T23:52:48.080Z,100187.25
2024-04-16T23:55:15.698Z,100187.56
2024-04-16T23:57:42.702Z,100178.47
